< < Back
Terminal Aerodrome Forecast


Current Version              Previous Versions:   1  2  3  4  5  6  7  8  9  

Terminal Aerodrome Forecast

090
FTUS42 KFFC 271605 AAA
TAFPDK
TAF AMD
KPDK 271605Z 2716/2812 23005KT P6SM FEW035
     FM271700 23006KT P6SM SCT040
     FM271900 22007KT P6SM VCSH SCT050
      TEMPO 2720/2723 5SM -TSRA BKN035CB
     FM280100 30003KT P6SM SCT070 BKN150=

Latest METAR

391
SAUS70 KWBC 272000 RRC
MTRPDK
METAR KPDK 271953Z 25008KT 10SM FEW055 36/18 A3001 RMK AO2 SLP140
T03560183


USA.gov is the U.S. government's official web portal to all federal, state and local government web resources and services.